Time;durP1;ratioP1;P1;durP2;ratioP2;P2;SDS_P1;SDS_P2;PMS_P1;PMS_P2;Temp;Humidity;BMP_temperature;BMP_pressure;BME280_temperature;BME280_humidity;BME280_pressure;Samples;Min_cycle;Max_cycle;Signal;HPM_P1;HPM_P2
2022/10/06 00:01:22;;;;;;;;;;;;;;;10.49;61.47;96088.44;5036952;28;20390;-76
2022/10/06 00:03:47;;;;;;;;;;;;;;;9.12;65.73;96112.38;5050146;28;19985;-75
2022/10/06 00:06:13;;;;;;;;;;;;;;;8.49;67.52;96149.50;5030854;28;19980;-75
2022/10/06 00:08:39;;;;;;;;;;;;;;;7.53;70.66;96136.53;5031574;28;20004;-75
2022/10/06 00:11:04;;;;;;;;;;;;;;;7.13;71.92;96130.50;5033631;28;20376;-75
2022/10/06 00:13:30;;;;;;;;;;;;;;;6.69;73.55;96131.00;5037764;28;19981;-75
2022/10/06 00:15:55;;;;;;;;;;;;;;;6.49;74.07;96145.09;5049024;28;20012;-75
2022/10/06 00:18:21;;;;;;;;;;;;;;;6.18;75.65;96131.94;5045031;28;19993;-75
2022/10/06 00:20:52;;;;;;;;;;;;;;;6.20;75.93;96132.66;5017181;28;20522;-75
2022/10/06 00:23:18;;;;;;;;;;;;;;;6.42;74.52;96130.72;5031548;28;20385;-75
2022/10/06 00:25:43;;;;;;;;;;;;;;;6.31;75.33;96144.91;5029175;28;19985;-75
2022/10/06 00:28:08;;;;;;;;;;;;;;;6.63;74.44;96145.63;5036022;28;20393;-74
2022/10/06 00:30:33;;;;;;;;;;;;;;;6.69;74.18;96147.72;5037057;28;19977;-75
2022/10/06 00:32:59;;;;;;;;;;;;;;;6.94;72.99;96147.28;5024983;28;20024;-75
2022/10/06 00:35:25;;;;;;;;;;;;;;;6.45;73.34;96156.88;5051342;28;20477;-75
2022/10/06 00:37:50;;;;;;;;;;;;;;;6.76;72.48;96154.13;5022348;28;19999;-75
2022/10/06 00:40:16;;;;;;;;;;;;;;;6.46;73.44;96176.25;5051780;28;20068;-75
2022/10/06 00:42:53;;;;;;;;;;;;;;;6.37;74.28;96154.91;5049239;28;19996;-75
2022/10/06 00:45:27;;;;;;;;;;;;;;;5.97;75.71;96177.84;5053454;28;20250;-75
2022/10/06 00:47:53;;;;;;;;;;;;;;;5.89;76.56;96172.38;5052589;28;20556;-75
2022/10/06 00:50:18;;;;;;;;;;;;;;;6.02;76.37;96155.44;5040127;28;20021;-75
2022/10/06 00:52:43;;;;;;;;;;;;;;;6.15;75.68;96163.94;5028310;28;20352;-75
2022/10/06 00:55:09;;;;;;;;;;;;;;;5.93;77.01;96178.22;5029218;28;19991;-75
2022/10/06 00:57:34;;;;;;;;;;;;;;;6.12;76.56;96178.28;5049795;28;20251;-75
2022/10/06 01:00:00;;;;;;;;;;;;;;;6.17;76.56;96193.75;5038956;28;20347;-75
2022/10/06 01:02:26;;;;;;;;;;;;;;;6.28;76.06;96182.19;5035675;28;20018;-75
2022/10/06 01:04:55;;;;;;;;;;;;;;;6.43;74.46;96211.72;5020130;28;19981;-75
2022/10/06 01:07:20;;;;;;;;;;;;;;;6.76;73.44;96177.94;5037595;28;19989;-76
2022/10/06 01:09:46;;;;;;;;;;;;;;;6.75;73.51;96170.16;5039016;28;20535;-75
2022/10/06 01:12:11;;;;;;;;;;;;;;;6.66;73.82;96189.50;5035262;28;19988;-75
2022/10/06 01:14:36;;;;;;;;;;;;;;;6.83;73.58;96188.81;5058025;28;20041;-75
2022/10/06 01:17:03;;;;;;;;;;;;;;;6.97;73.08;96205.25;5054483;28;20327;-75
2022/10/06 01:19:29;;;;;;;;;;;;;;;6.95;73.25;96201.91;5035339;28;19965;-75
2022/10/06 01:21:54;;;;;;;;;;;;;;;6.83;73.10;96238.28;5034187;28;19964;-74
2022/10/06 01:24:19;;;;;;;;;;;;;;;6.73;74.08;96239.09;5047686;28;20462;-75
2022/10/06 01:26:45;;;;;;;;;;;;;;;5.65;76.95;96247.53;5050505;28;20027;-74
2022/10/06 01:29:10;;;;;;;;;;;;;;;5.66;77.24;96262.41;5036459;28;19988;-74
2022/10/06 01:31:35;;;;;;;;;;;;;;;5.36;78.02;96237.63;5031751;28;20400;-75
2022/10/06 01:34:00;;;;;;;;;;;;;;;5.44;77.72;96237.00;5036815;28;20492;-74
2022/10/06 01:36:26;;;;;;;;;;;;;;;5.83;75.30;96238.97;5053626;28;19996;-75
2022/10/06 01:38:51;;;;;;;;;;;;;;;6.14;73.09;96238.94;5055612;28;20008;-75
2022/10/06 01:41:16;;;;;;;;;;;;;;;5.98;74.87;96239.44;5039939;28;20037;-75
2022/10/06 01:43:41;;;;;;;;;;;;;;;6.17;73.72;96251.91;5053866;28;19989;-75
2022/10/06 01:46:07;;;;;;;;;;;;;;;6.02;74.07;96246.13;5052159;28;19980;-76
2022/10/06 01:48:33;;;;;;;;;;;;;;;6.52;72.43;96233.91;5038126;28;20019;-76
2022/10/06 01:50:59;;;;;;;;;;;;;;;6.68;71.71;96229.88;5048289;28;19972;-76
2022/10/06 01:53:24;;;;;;;;;;;;;;;7.02;69.55;96240.06;5054096;28;19985;-76
2022/10/06 01:55:49;;;;;;;;;;;;;;;7.24;68.64;96238.94;5049025;28;20177;-77
2022/10/06 01:58:17;;;;;;;;;;;;;;;6.78;70.03;96241.31;5052675;28;19972;-77
2022/10/06 02:00:42;;;;;;;;;;;;;;;6.56;70.00;96253.00;5024481;28;19999;-77
2022/10/06 02:03:08;;;;;;;;;;;;;;;7.09;67.59;96248.28;5055339;28;19973;-77
2022/10/06 02:05:33;;;;;;;;;;;;;;;6.90;69.48;96265.84;5049799;28;20083;-75
2022/10/06 02:08:02;;;;;;;;;;;;;;;7.07;69.00;96271.44;5031595;28;19993;-77
2022/10/06 02:10:27;;;;;;;;;;;;;;;7.45;66.88;96264.41;5029078;28;20007;-77
2022/10/06 02:12:53;;;;;;;;;;;;;;;6.97;69.14;96274.06;5045355;28;20024;-78
2022/10/06 02:15:19;;;;;;;;;;;;;;;6.76;69.96;96270.56;5009108;28;19966;-77
2022/10/06 02:17:44;;;;;;;;;;;;;;;6.68;70.40;96273.06;5052951;28;20071;-77
2022/10/06 02:20:10;;;;;;;;;;;;;;;6.73;69.85;96268.19;5052699;28;20303;-77
2022/10/06 02:22:39;;;;;;;;;;;;;;;6.60;70.70;96281.69;5035521;28;20067;-77
2022/10/06 02:25:04;;;;;;;;;;;;;;;6.46;71.09;96267.00;5029440;28;19985;-77
2022/10/06 02:27:29;;;;;;;;;;;;;;;6.57;71.09;96279.34;5049176;28;19985;-77
2022/10/06 02:29:55;;;;;;;;;;;;;;;6.69;70.57;96274.75;5053229;28;20064;-77
2022/10/06 02:32:20;;;;;;;;;;;;;;;6.16;72.97;96283.78;5036196;28;20016;-77
2022/10/06 02:34:45;;;;;;;;;;;;;;;6.08;72.50;96292.34;5033633;28;20407;-78
2022/10/06 02:37:11;;;;;;;;;;;;;;;6.33;72.42;96293.69;5051257;28;20044;-76
2022/10/06 02:39:36;;;;;;;;;;;;;;;6.49;71.38;96287.09;5034188;28;20425;-76
2022/10/06 02:42:02;;;;;;;;;;;;;;;6.27;71.49;96311.91;5054812;28;20527;-77
2022/10/06 02:44:27;;;;;;;;;;;;;;;6.72;70.29;96293.00;5050876;28;19993;-76
2022/10/06 02:46:53;;;;;;;;;;;;;;;6.62;70.53;96287.69;5052872;28;19972;-76
2022/10/06 02:49:18;;;;;;;;;;;;;;;6.78;68.90;96320.72;5024754;28;20032;-76
2022/10/06 02:51:43;;;;;;;;;;;;;;;6.66;69.95;96305.94;5030371;28;20364;-77
2022/10/06 02:54:09;;;;;;;;;;;;;;;6.60;70.40;96299.38;5037829;28;20380;-77
2022/10/06 02:56:40;;;;;;;;;;;;;;;6.62;70.39;96300.91;5054532;28;20031;-78
2022/10/06 02:59:05;;;;;;;;;;;;;;;6.60;70.56;96302.03;5056141;28;20353;-78
2022/10/06 03:01:34;;;;;;;;;;;;;;;6.68;70.06;96319.84;5032665;28;20071;-77
2022/10/06 03:03:59;;;;;;;;;;;;;;;6.61;70.56;96320.41;5030292;28;20728;-78
2022/10/06 03:06:28;;;;;;;;;;;;;;;6.46;70.70;96340.25;5035302;28;20217;-77
2022/10/06 03:09:21;;;;;;;;;;;;;;;6.77;68.92;96343.69;5054208;28;20560;-77
2022/10/06 03:11:47;;;;;;;;;;;;;;;6.48;70.03;96352.41;5024925;28;20016;-77
2022/10/06 03:14:12;;;;;;;;;;;;;;;7.11;67.65;96344.31;5036696;28;20454;-77
2022/10/06 03:16:38;;;;;;;;;;;;;;;6.45;69.28;96357.91;5022510;28;20485;-77
2022/10/06 03:19:04;;;;;;;;;;;;;;;6.36;69.96;96362.19;5020574;28;20032;-77
2022/10/06 03:21:30;;;;;;;;;;;;;;;6.67;69.00;96361.38;5053692;28;20028;-78
2022/10/06 03:23:56;;;;;;;;;;;;;;;7.10;66.42;96350.56;5035934;28;20481;-77
2022/10/06 03:26:22;;;;;;;;;;;;;;;6.43;67.53;96361.69;5034651;28;20030;-77
2022/10/06 03:28:47;;;;;;;;;;;;;;;6.06;69.15;96377.06;5051123;28;19989;-77
2022/10/06 03:31:12;;;;;;;;;;;;;;;6.39;67.73;96371.66;5052182;28;20414;-77
2022/10/06 03:33:38;;;;;;;;;;;;;;;6.06;69.15;96370.97;5036152;28;20026;-77
2022/10/06 03:36:07;;;;;;;;;;;;;;;6.09;69.12;96376.81;5030134;28;19989;-76
2022/10/06 03:38:32;;;;;;;;;;;;;;;6.36;68.31;96379.91;5029595;28;19993;-77
2022/10/06 03:41:04;;;;;;;;;;;;;;;6.53;67.40;96378.44;5028220;28;20449;-77
2022/10/06 03:43:30;;;;;;;;;;;;;;;6.29;67.97;96390.13;5028200;28;20267;-77
2022/10/06 03:45:56;;;;;;;;;;;;;;;6.72;66.54;96388.28;5027463;28;20052;-77
2022/10/06 03:48:21;;;;;;;;;;;;;;;6.41;67.62;96390.06;5029036;28;20101;-77
2022/10/06 03:50:52;;;;;;;;;;;;;;;6.06;69.09;96414.09;5031253;28;20288;-77
2022/10/06 03:53:17;;;;;;;;;;;;;;;5.64;68.94;96407.00;5026208;28;19997;-76
2022/10/06 03:55:44;;;;;;;;;;;;;;;6.07;68.81;96412.28;5031518;28;19985;-76
2022/10/06 03:58:09;;;;;;;;;;;;;;;5.86;68.14;96421.06;5034682;28;19966;-77
2022/10/06 04:00:34;;;;;;;;;;;;;;;5.88;68.53;96431.53;5027489;28;20468;-76
2022/10/06 04:03:00;;;;;;;;;;;;;;;6.44;67.44;96413.59;5016727;28;20395;-77
2022/10/06 04:05:25;;;;;;;;;;;;;;;6.41;67.04;96425.28;5036047;28;20404;-77
2022/10/06 04:07:50;;;;;;;;;;;;;;;5.93;65.58;96426.69;5030336;28;20044;-77
2022/10/06 04:10:16;;;;;;;;;;;;;;;5.59;68.10;96428.53;5023859;28;20356;-77
2022/10/06 04:12:41;;;;;;;;;;;;;;;5.85;68.26;96445.84;5031636;28;20524;-77
2022/10/06 04:15:07;;;;;;;;;;;;;;;5.52;68.31;96458.19;5016152;28;20468;-76
2022/10/06 04:17:32;;;;;;;;;;;;;;;5.30;68.73;96462.56;5031401;28;19989;-79
2022/10/06 04:19:57;;;;;;;;;;;;;;;5.38;69.66;96449.63;5012328;28;19985;-76
2022/10/06 04:22:23;;;;;;;;;;;;;;;5.77;67.99;96453.53;5020358;28;19981;-75
2022/10/06 04:24:49;;;;;;;;;;;;;;;5.77;68.05;96456.19;5030747;28;20474;-77
2022/10/06 04:27:26;;;;;;;;;;;;;;;5.55;68.05;96458.78;5034935;28;20428;-77
2022/10/06 04:29:51;;;;;;;;;;;;;;;6.03;66.88;96456.66;5031575;28;19989;-77
2022/10/06 04:32:17;;;;;;;;;;;;;;;6.22;65.39;96460.38;5035195;28;20499;-77
2022/10/06 04:34:42;;;;;;;;;;;;;;;6.10;65.85;96459.63;5028546;28;19999;-77
2022/10/06 04:37:08;;;;;;;;;;;;;;;6.15;65.73;96467.19;5038089;28;20005;-77
2022/10/06 04:39:33;;;;;;;;;;;;;;;6.33;64.71;96475.38;5047238;28;19973;-77
2022/10/06 04:41:58;;;;;;;;;;;;;;;6.79;62.85;96469.75;5054828;28;19965;-77
2022/10/06 04:44:23;;;;;;;;;;;;;;;6.59;63.21;96478.47;5045451;28;20528;-77
2022/10/06 04:46:49;;;;;;;;;;;;;;;6.17;64.31;96478.44;5052878;28;19977;-77
2022/10/06 04:49:14;;;;;;;;;;;;;;;6.29;63.79;96484.53;5035559;28;20038;-77
2022/10/06 04:51:39;;;;;;;;;;;;;;;5.56;65.66;96484.25;5051634;28;20043;-77
2022/10/06 04:54:04;;;;;;;;;;;;;;;5.60;65.70;96490.97;5045413;28;20270;-77
2022/10/06 04:56:30;;;;;;;;;;;;;;;5.92;64.69;96496.38;5038441;28;19993;-77
2022/10/06 04:58:55;;;;;;;;;;;;;;;5.97;64.45;96499.47;5021355;28;19977;-77
2022/10/06 05:01:22;;;;;;;;;;;;;;;5.45;65.49;96519.44;5031505;28;20408;-77
2022/10/06 05:03:56;;;;;;;;;;;;;;;5.59;65.60;96512.22;5028497;28;20402;-77
2022/10/06 05:06:31;;;;;;;;;;;;;;;5.61;65.31;96512.91;5026157;28;20309;-77
2022/10/06 05:08:57;;;;;;;;;;;;;;;5.38;65.77;96520.91;5034396;28;20034;-77
2022/10/06 05:11:23;;;;;;;;;;;;;;;5.27;66.05;96536.78;5049491;28;19981;-77
2022/10/06 05:13:49;;;;;;;;;;;;;;;5.60;65.30;96524.44;5024404;28;19965;-77
2022/10/06 05:16:15;;;;;;;;;;;;;;;5.26;66.08;96524.50;5010297;28;20547;-77
2022/10/06 05:18:40;;;;;;;;;;;;;;;5.23;65.82;96541.44;5035848;28;20087;-77
2022/10/06 05:21:09;;;;;;;;;;;;;;;5.32;66.11;96529.31;5032677;28;20024;-76
2022/10/06 05:23:35;;;;;;;;;;;;;;;5.50;65.48;96542.03;5036075;28;20241;-76
2022/10/06 05:26:01;;;;;;;;;;;;;;;5.43;65.65;96542.50;5032547;28;20018;-77
2022/10/06 05:28:26;;;;;;;;;;;;;;;5.47;65.49;96548.38;5035199;28;20005;-77
2022/10/06 05:31:01;;;;;;;;;;;;;;;5.43;65.73;96545.16;5029109;28;19977;-77
2022/10/06 05:33:30;;;;;;;;;;;;;;;5.62;64.82;96543.69;5019330;28;20652;-77
2022/10/06 05:35:58;;;;;;;;;;;;;;;5.52;65.09;96561.22;5032023;28;20380;-77
2022/10/06 05:38:24;;;;;;;;;;;;;;;5.71;64.86;96553.50;5014742;28;20024;-76
2022/10/06 05:40:52;;;;;;;;;;;;;;;5.79;65.15;96546.75;5029009;28;19989;-77
2022/10/06 05:43:17;;;;;;;;;;;;;;;5.73;64.71;96563.94;5031385;28;20008;-76
2022/10/06 05:45:52;;;;;;;;;;;;;;;6.33;62.77;96560.00;5033359;28;20028;-77
2022/10/06 05:48:18;;;;;;;;;;;;;;;6.25;62.64;96569.41;5035031;28;19992;-76
2022/10/06 05:50:44;;;;;;;;;;;;;;;6.37;62.36;96572.81;5018747;28;19973;-77
2022/10/06 05:53:09;;;;;;;;;;;;;;;5.74;63.79;96577.03;5030694;28;19999;-70
2022/10/06 05:55:34;;;;;;;;;;;;;;;5.51;64.84;96575.41;5047153;28;21211;-68
2022/10/06 05:57:59;;;;;;;;;;;;;;;5.24;65.27;96582.75;5052312;28;19977;-68
2022/10/06 06:00:25;;;;;;;;;;;;;;;5.60;64.59;96593.13;5046146;28;19996;-67
2022/10/06 06:02:50;;;;;;;;;;;;;;;5.13;65.41;96594.13;5045453;28;20004;-67
2022/10/06 06:05:15;;;;;;;;;;;;;;;5.21;65.40;96597.00;5045574;28;20474;-68
2022/10/06 06:07:41;;;;;;;;;;;;;;;5.02;65.50;96613.41;5046113;28;20020;-68
2022/10/06 06:10:06;;;;;;;;;;;;;;;4.80;66.69;96596.56;5050144;28;19973;-66
2022/10/06 06:12:31;;;;;;;;;;;;;;;5.29;64.17;96606.97;5046444;28;19993;-68
2022/10/06 06:17:41;;;;;;;;;;;;;;;5.13;64.70;96617.88;5051298;28;20004;-68
2022/10/06 06:20:06;;;;;;;;;;;;;;;5.17;64.37;96615.88;5049368;28;20250;-68
2022/10/06 06:22:31;;;;;;;;;;;;;;;5.60;63.75;96628.34;5053345;28;19974;-68
2022/10/06 06:24:56;;;;;;;;;;;;;;;5.89;62.21;96626.97;5046293;28;20035;-67
2022/10/06 06:27:22;;;;;;;;;;;;;;;5.53;62.75;96631.56;5047538;28;20020;-68
2022/10/06 06:29:47;;;;;;;;;;;;;;;5.93;61.80;96628.41;5051064;28;19976;-68
2022/10/06 06:32:12;;;;;;;;;;;;;;;5.86;61.53;96643.06;5051009;28;19984;-67
2022/10/06 06:34:37;;;;;;;;;;;;;;;6.08;60.98;96642.19;5054648;28;20185;-68
2022/10/06 06:37:03;;;;;;;;;;;;;;;5.92;61.49;96653.13;5053424;28;20035;-68
2022/10/06 06:39:28;;;;;;;;;;;;;;;5.29;63.48;96656.31;5049968;28;19980;-68
2022/10/06 06:41:53;;;;;;;;;;;;;;;5.91;61.58;96661.22;5048654;28;19976;-68
2022/10/06 06:44:18;;;;;;;;;;;;;;;5.44;63.18;96657.75;5050812;28;20218;-67
2022/10/06 06:46:47;;;;;;;;;;;;;;;6.30;60.40;96660.75;5047922;28;20335;-68
2022/10/06 06:49:12;;;;;;;;;;;;;;;6.43;59.57;96671.19;5048126;28;20318;-67
2022/10/06 06:51:49;;;;;;;;;;;;;;;6.56;59.28;96663.09;5047903;28;20032;-68
2022/10/06 06:54:15;;;;;;;;;;;;;;;6.05;60.82;96676.78;5049771;28;20010;-68
2022/10/06 06:56:41;;;;;;;;;;;;;;;6.32;59.60;96680.00;5047063;28;20449;-68
2022/10/06 06:59:07;;;;;;;;;;;;;;;5.98;60.66;96689.66;5049555;28;19979;-68
2022/10/06 07:01:32;;;;;;;;;;;;;;;6.12;60.34;96683.28;5033279;28;20080;-69
2022/10/06 07:03:58;;;;;;;;;;;;;;;6.09;60.34;96691.44;5044117;28;20353;-68
2022/10/06 07:06:25;;;;;;;;;;;;;;;5.83;61.25;96690.88;5044364;28;20013;-67
2022/10/06 07:08:51;;;;;;;;;;;;;;;5.80;61.17;96693.78;5032461;28;20540;-68
2022/10/06 07:11:30;;;;;;;;;;;;;;;5.98;60.89;96704.69;5047713;28;20022;-68
2022/10/06 07:13:57;;;;;;;;;;;;;;;6.16;60.93;96702.41;5045860;28;19985;-68
2022/10/06 07:25:06;;;;;;;;;;;;;;;6.19;60.60;96717.16;5042563;28;20004;-68
2022/10/06 07:27:36;;;;;;;;;;;;;;;6.15;60.52;96713.91;5046139;28;19995;-68
2022/10/06 07:30:02;;;;;;;;;;;;;;;6.83;59.02;96720.03;5046620;28;19983;-67
2022/10/06 07:32:30;;;;;;;;;;;;;;;7.30;57.12;96724.06;5026365;28;20062;-68
2022/10/06 07:34:55;;;;;;;;;;;;;;;7.49;56.29;96724.22;5046823;28;19973;-68
2022/10/06 07:37:20;;;;;;;;;;;;;;;7.28;55.95;96733.00;5053640;28;20008;-68
2022/10/06 07:39:48;;;;;;;;;;;;;;;7.19;55.73;96736.44;5049480;28;20468;-68
2022/10/06 07:42:14;;;;;;;;;;;;;;;7.93;54.51;96739.09;5050588;28;19977;-68
2022/10/06 07:44:42;;;;;;;;;;;;;;;8.47;52.74;96741.47;5050017;28;20373;-68
2022/10/06 07:47:07;;;;;;;;;;;;;;;7.58;54.85;96750.91;5054125;28;19981;-67
2022/10/06 07:49:32;;;;;;;;;;;;;;;7.31;55.86;96749.63;5050322;28;19981;-67
2022/10/06 07:51:58;;;;;;;;;;;;;;;7.40;55.73;96748.84;5052922;28;20015;-68
2022/10/06 07:54:24;;;;;;;;;;;;;;;8.18;54.68;96752.84;5050719;28;20020;-69
2022/10/06 07:56:49;;;;;;;;;;;;;;;8.27;53.55;96761.81;5048820;28;20184;-69
2022/10/06 07:59:14;;;;;;;;;;;;;;;8.51;53.41;96769.44;5052424;28;20362;-69
2022/10/06 08:01:40;;;;;;;;;;;;;;;8.60;52.63;96762.44;5053491;28;19988;-69
2022/10/06 08:04:05;;;;;;;;;;;;;;;8.59;53.06;96775.84;5051382;28;20493;-69
2022/10/06 08:06:30;;;;;;;;;;;;;;;8.12;53.19;96772.78;5048223;28;19989;-69
2022/10/06 08:08:56;;;;;;;;;;;;;;;7.88;53.81;96778.41;5049687;28;20221;-68
2022/10/06 08:11:21;;;;;;;;;;;;;;;7.79;53.56;96774.75;5053463;28;20050;-67
2022/10/06 08:13:47;;;;;;;;;;;;;;;7.73;54.76;96780.53;5053204;28;19963;-67
2022/10/06 08:16:16;;;;;;;;;;;;;;;8.16;53.67;96789.31;5048293;28;20004;-69
2022/10/06 08:18:41;;;;;;;;;;;;;;;7.59;55.29;96787.88;5052190;28;20042;-67
2022/10/06 08:21:12;;;;;;;;;;;;;;;7.62;55.05;96800.03;5051068;28;20451;-67
2022/10/06 08:23:41;;;;;;;;;;;;;;;8.08;54.01;96797.06;5047169;28;20031;-68
2022/10/06 08:26:06;;;;;;;;;;;;;;;8.61;52.48;96805.75;5052207;28;19980;-68
2022/10/06 08:28:31;;;;;;;;;;;;;;;8.77;52.06;96805.25;5036825;28;20384;-68
2022/10/06 08:30:57;;;;;;;;;;;;;;;8.61;52.20;96808.41;5053990;28;20012;-68
2022/10/06 08:33:22;;;;;;;;;;;;;;;8.90;51.77;96815.59;5048370;28;19993;-68
2022/10/06 08:35:47;;;;;;;;;;;;;;;7.91;52.84;96828.53;5049291;28;19989;-67
2022/10/06 08:38:13;;;;;;;;;;;;;;;8.03;52.77;96821.34;5048992;28;20380;-68
2022/10/06 08:40:40;;;;;;;;;;;;;;;7.95;52.78;96822.00;5050810;28;20015;-68
2022/10/06 08:43:05;;;;;;;;;;;;;;;8.01;51.96;96821.47;5049661;28;20000;-68
2022/10/06 08:45:38;;;;;;;;;;;;;;;7.57;54.43;96839.31;5028638;28;20500;-67
2022/10/06 08:48:05;;;;;;;;;;;;;;;7.06;55.30;96839.91;5049140;28;20008;-67
2022/10/06 08:50:32;;;;;;;;;;;;;;;7.80;54.06;96842.72;5033133;28;20090;-67
2022/10/06 08:53:04;;;;;;;;;;;;;;;7.13;54.80;96845.53;5048924;28;20385;-67
2022/10/06 08:55:50;;;;;;;;;;;;;;;7.52;54.88;96843.19;5050327;28;20444;-67
2022/10/06 08:58:30;;;;;;;;;;;;;;;7.41;54.38;96840.59;5052866;28;20393;-68
2022/10/06 09:00:59;;;;;;;;;;;;;;;7.46;53.77;96850.81;5048838;28;19992;-68
2022/10/06 09:03:26;;;;;;;;;;;;;;;7.92;53.53;96852.28;5034640;28;19973;-68
2022/10/06 09:05:51;;;;;;;;;;;;;;;8.16;53.27;96861.75;5052906;28;20063;-67
2022/10/06 09:08:35;;;;;;;;;;;;;;;7.35;54.10;96863.13;5054076;28;20084;-67
2022/10/06 09:11:03;;;;;;;;;;;;;;;6.53;57.30;96862.63;5053495;28;19974;-67
2022/10/06 09:13:37;;;;;;;;;;;;;;;7.21;55.13;96853.69;5049190;28;20035;-67
2022/10/06 09:16:06;;;;;;;;;;;;;;;7.75;54.89;96861.63;5049976;28;20858;-67
2022/10/06 09:18:34;;;;;;;;;;;;;;;7.46;52.44;96867.56;5046293;28;19988;-67
2022/10/06 09:21:00;;;;;;;;;;;;;;;7.54;54.22;96873.06;5046961;28;20072;-68
2022/10/06 09:23:48;;;;;;;;;;;;;;;7.58;52.42;96873.63;5045073;28;20377;-67
2022/10/06 09:26:17;;;;;;;;;;;;;;;7.79;53.35;96873.69;5035635;28;20364;-67
2022/10/06 09:28:45;;;;;;;;;;;;;;;7.56;53.38;96875.59;5049519;28;20005;-67
2022/10/06 09:31:23;;;;;;;;;;;;;;;7.78;51.63;96874.66;5053646;28;19980;-67
2022/10/06 09:33:52;;;;;;;;;;;;;;;8.31;49.83;96872.00;5050105;28;20041;-67
2022/10/06 09:36:17;;;;;;;;;;;;;;;7.68;52.06;96879.00;5048046;28;20385;-67
2022/10/06 09:38:46;;;;;;;;;;;;;;;7.95;50.03;96880.34;5053218;28;19997;-67
2022/10/06 09:41:12;;;;;;;;;;;;;;;8.45;50.85;96873.47;5045757;28;20011;-67
2022/10/06 09:43:37;;;;;;;;;;;;;;;7.72;50.57;96884.91;5030819;28;20449;-67
2022/10/06 09:46:20;;;;;;;;;;;;;;;7.38;51.20;96884.09;5055252;28;19964;-67
2022/10/06 09:48:45;;;;;;;;;;;;;;;7.59;51.50;96891.25;5046832;28;20067;-67
2022/10/06 09:51:10;;;;;;;;;;;;;;;7.77;48.23;96883.59;5052850;28;20492;-68
2022/10/06 09:53:37;;;;;;;;;;;;;;;7.49;49.12;96885.88;5046423;28;19985;-67
2022/10/06 09:56:03;;;;;;;;;;;;;;;7.83;48.39;96884.88;5033426;28;20619;-68
2022/10/06 09:58:36;;;;;;;;;;;;;;;7.83;47.71;96886.69;5042615;28;19969;-68
2022/10/06 10:01:02;;;;;;;;;;;;;;;8.24;45.46;96890.28;5051914;28;20049;-71
2022/10/06 10:03:40;;;;;;;;;;;;;;;8.80;47.38;96882.81;5038408;28;20362;-72
2022/10/06 10:06:06;;;;;;;;;;;;;;;8.03;49.88;96871.75;5038096;28;19964;-68
2022/10/06 10:08:31;;;;;;;;;;;;;;;8.86;47.42;96884.09;5050496;28;20001;-77
2022/10/06 10:13:55;;;;;;;;;;;;;;;9.37;45.01;96893.81;5001718;28;20012;-77
2022/10/06 10:16:23;;;;;;;;;;;;;;;9.90;42.69;96902.38;5035460;28;20619;-78
2022/10/06 10:18:49;;;;;;;;;;;;;;;9.98;42.15;96897.16;5053069;28;19987;-78
2022/10/06 10:21:22;;;;;;;;;;;;;;;10.74;42.64;96890.06;5022413;28;20219;-78
2022/10/06 10:23:54;;;;;;;;;;;;;;;11.09;40.63;96884.19;5052812;28;20011;-78
2022/10/06 10:26:38;;;;;;;;;;;;;;;11.59;40.05;96895.34;5026927;28;19972;-78
2022/10/06 10:29:23;;;;;;;;;;;;;;;11.63;38.42;96889.50;5029774;28;20091;-78
2022/10/06 10:31:51;;;;;;;;;;;;;;;11.95;37.84;96892.63;5053874;28;20054;-77
2022/10/06 10:34:23;;;;;;;;;;;;;;;11.81;38.20;96896.69;5033964;28;20115;-78
2022/10/06 10:36:49;;;;;;;;;;;;;;;11.97;37.53;96895.13;5035379;28;19989;-79
2022/10/06 10:39:18;;;;;;;;;;;;;;;10.69;39.39;96904.81;5035462;28;20154;-77
2022/10/06 10:41:45;;;;;;;;;;;;;;;10.88;38.99;96896.72;5026371;28;20241;-76
2022/10/06 10:44:14;;;;;;;;;;;;;;;10.64;39.53;96893.78;5032343;28;20066;-76
2022/10/06 10:46:44;;;;;;;;;;;;;;;11.24;37.72;96895.16;5031862;28;20049;-80
2022/10/06 10:49:17;;;;;;;;;;;;;;;11.32;37.45;96884.56;5036659;28;19999;-79
2022/10/06 10:51:49;;;;;;;;;;;;;;;11.20;37.74;96889.28;5036215;28;19973;-80
2022/10/06 10:54:16;;;;;;;;;;;;;;;11.31;37.03;96904.22;5028706;28;19965;-80
2022/10/06 10:56:42;;;;;;;;;;;;;;;11.24;37.36;96904.00;5048418;28;20372;-79
2022/10/06 10:59:22;;;;;;;;;;;;;;;10.88;38.24;96888.75;5033223;28;19965;-80
2022/10/06 11:02:06;;;;;;;;;;;;;;;10.86;39.74;96890.72;5055746;28;20000;-80
2022/10/06 11:04:31;;;;;;;;;;;;;;;10.90;38.44;96898.41;5050580;28;19997;-79
2022/10/06 11:07:03;;;;;;;;;;;;;;;9.53;41.06;96893.28;5053620;28;20068;-79
2022/10/06 11:09:47;;;;;;;;;;;;;;;11.34;37.54;96885.25;5054133;28;20004;-80
2022/10/06 11:12:15;;;;;;;;;;;;;;;10.95;39.13;96888.16;5056947;28;19985;-79
2022/10/06 11:14:47;;;;;;;;;;;;;;;10.74;39.18;96895.41;5060255;28;20029;-79
2022/10/06 11:17:13;;;;;;;;;;;;;;;11.36;37.87;96880.59;5027136;28;20027;-78
2022/10/06 11:19:55;;;;;;;;;;;;;;;11.09;38.05;96887.66;5055367;28;20012;-79
2022/10/06 11:22:29;;;;;;;;;;;;;;;11.12;37.95;96892.69;5026986;28;20097;-80
2022/10/06 11:25:14;;;;;;;;;;;;;;;11.30;38.57;96899.88;5059603;28;19988;-78
2022/10/06 11:27:53;;;;;;;;;;;;;;;11.37;39.37;96900.13;5035941;28;20000;-77
2022/10/06 11:30:19;;;;;;;;;;;;;;;11.71;36.70;96890.59;5036798;28;19972;-79
2022/10/06 11:32:47;;;;;;;;;;;;;;;11.54;34.00;96901.13;5055100;28;19989;-78
2022/10/06 11:35:22;;;;;;;;;;;;;;;11.46;35.81;96895.72;5033845;28;19965;-78
2022/10/06 11:37:49;;;;;;;;;;;;;;;11.50;36.27;96900.56;5041498;28;20083;-77
2022/10/06 11:40:15;;;;;;;;;;;;;;;11.58;36.17;96901.63;5053210;28;20363;-78
2022/10/06 11:42:42;;;;;;;;;;;;;;;11.94;35.44;96900.78;5034193;28;20016;-77
2022/10/06 11:45:12;;;;;;;;;;;;;;;12.68;34.05;96884.38;5058336;28;19984;-80
2022/10/06 11:47:40;;;;;;;;;;;;;;;12.77;34.85;96885.25;5032996;28;20571;-77
2022/10/06 11:50:24;;;;;;;;;;;;;;;12.55;34.07;96898.19;5038077;28;20458;-78
2022/10/06 11:52:51;;;;;;;;;;;;;;;13.12;32.38;96882.56;5043918;28;20406;-79
2022/10/06 11:55:16;;;;;;;;;;;;;;;13.13;33.73;96892.25;5045687;28;20436;-80
2022/10/06 11:58:02;;;;;;;;;;;;;;;13.33;32.31;96889.28;5039849;28;19993;-80
2022/10/06 12:00:33;;;;;;;;;;;;;;;13.68;32.75;96893.50;5057917;28;19989;-80
2022/10/06 12:03:18;;;;;;;;;;;;;;;14.37;31.64;96887.94;5054491;28;20024;-80
2022/10/06 12:05:44;;;;;;;;;;;;;;;14.57;32.12;96880.34;5044102;28;20070;-80
2022/10/06 12:08:14;;;;;;;;;;;;;;;14.40;31.06;96884.91;5055290;28;19993;-81
2022/10/06 12:10:46;;;;;;;;;;;;;;;14.36;31.35;96894.31;5041898;28;20048;-81
2022/10/06 12:13:20;;;;;;;;;;;;;;;13.25;31.94;96882.06;5041667;28;19989;-80
2022/10/06 12:15:54;;;;;;;;;;;;;;;12.83;33.12;96873.91;5037711;28;22468;-80
2022/10/06 12:18:34;;;;;;;;;;;;;;;13.20;33.32;96874.56;5055076;28;20034;-80
2022/10/06 12:21:18;;;;;;;;;;;;;;;14.08;31.08;96866.91;5038345;28;20380;-80
2022/10/06 12:23:48;;;;;;;;;;;;;;;14.65;29.75;96861.56;5051105;28;20447;-80
2022/10/06 12:26:19;;;;;;;;;;;;;;;14.34;30.00;96879.25;5055815;28;20366;-80
2022/10/06 12:29:03;;;;;;;;;;;;;;;14.76;29.66;96867.59;5039036;28;20047;-80
2022/10/06 12:31:32;;;;;;;;;;;;;;;15.75;27.96;96872.34;5055400;28;19997;-80
2022/10/06 12:33:57;;;;;;;;;;;;;;;17.54;26.58;96866.28;5053323;28;20023;-82
2022/10/06 12:36:27;;;;;;;;;;;;;;;17.81;25.35;96862.97;5035150;28;20403;-80
2022/10/06 12:38:55;;;;;;;;;;;;;;;19.58;23.19;96858.31;5058024;28;20465;-80
2022/10/06 12:41:40;;;;;;;;;;;;;;;18.21;24.68;96865.19;5056094;28;20369;-80
2022/10/06 12:44:15;;;;;;;;;;;;;;;20.07;22.73;96863.56;5053493;28;20403;-80
2022/10/06 12:46:41;;;;;;;;;;;;;;;22.60;20.38;96866.38;5035393;28;20244;-80
2022/10/06 12:49:10;;;;;;;;;;;;;;;23.54;19.02;96852.69;5036803;28;20643;-80
2022/10/06 12:51:39;;;;;;;;;;;;;;;25.59;15.60;96852.25;5055405;28;19959;-81
2022/10/06 12:54:09;;;;;;;;;;;;;;;24.55;17.06;96863.81;5055984;28;20407;-81
2022/10/06 12:56:34;;;;;;;;;;;;;;;24.59;16.79;96862.28;5037029;28;20457;-81
2022/10/06 12:59:19;;;;;;;;;;;;;;;26.78;16.00;96849.72;5048949;28;19960;-82
2022/10/06 13:01:44;;;;;;;;;;;;;;;27.63;15.29;96856.69;5053927;28;19973;-81
2022/10/06 13:04:28;;;;;;;;;;;;;;;27.86;13.68;96858.25;5033500;28;20007;-81
2022/10/06 13:06:53;;;;;;;;;;;;;;;27.76;13.74;96859.00;5036048;28;19954;-81
2022/10/06 13:09:18;;;;;;;;;;;;;;;26.03;14.28;96864.47;5052987;28;19968;-81
2022/10/06 13:11:43;;;;;;;;;;;;;;;26.50;13.92;96860.50;5036103;28;20075;-81
2022/10/06 13:14:11;;;;;;;;;;;;;;;27.00;14.32;96852.44;5040262;28;20460;-81